createdAt,value
2023-04-22T00:00:56.392Z,7.13
2023-04-22T00:03:24.586Z,9.20
2023-04-22T00:05:52.974Z,8.40
2023-04-22T00:08:22.550Z,7.00
2023-04-22T00:10:50.610Z,7.27
2023-04-22T00:13:18.787Z,9.00
2023-04-22T00:15:46.968Z,9.27
2023-04-22T00:18:15.320Z,9.40
2023-04-22T00:20:44.264Z,7.23
2023-04-22T00:23:12.895Z,9.37
2023-04-22T00:25:42.357Z,7.83
2023-04-22T00:28:11.184Z,6.43
2023-04-22T00:30:39.437Z,6.83
2023-04-22T00:33:07.564Z,4.97
2023-04-22T00:35:35.688Z,6.53
2023-04-22T00:38:03.777Z,6.83
2023-04-22T00:40:31.951Z,5.40
2023-04-22T00:43:01.611Z,6.20
2023-04-22T00:45:31.621Z,7.43
2023-04-22T00:48:00.110Z,6.17
2023-04-22T00:50:28.513Z,5.53
2023-04-22T00:52:56.926Z,5.33
2023-04-22T00:55:25.754Z,5.03
2023-04-22T00:57:55.926Z,4.90
2023-04-22T01:00:27.508Z,5.67
2023-04-22T01:02:56.344Z,4.40
2023-04-22T01:05:25.655Z,6.23
2023-04-22T01:07:53.895Z,4.53
2023-04-22T01:10:22.009Z,5.43
2023-04-22T01:12:50.063Z,4.90
2023-04-22T01:15:18.521Z,5.17
2023-04-22T01:17:48.860Z,6.47
2023-04-22T01:20:17.238Z,6.17
2023-04-22T01:22:46.595Z,6.93
2023-04-22T01:25:16.169Z,5.77
2023-04-22T01:27:44.583Z,5.17
2023-04-22T01:30:13.422Z,5.83
2023-04-22T01:32:42.405Z,5.20
2023-04-22T01:35:11.268Z,4.73
2023-04-22T01:37:39.909Z,6.10
2023-04-22T01:40:10.299Z,5.53
2023-04-22T01:42:40.062Z,6.17
2023-04-22T01:45:09.243Z,5.50
2023-04-22T01:47:37.336Z,6.60
2023-04-22T01:50:06.060Z,6.17
2023-04-22T01:52:34.227Z,4.93
2023-04-22T01:55:03.752Z,4.90
2023-04-22T01:57:31.788Z,6.23
2023-04-22T02:00:01.251Z,5.70
2023-04-22T02:02:29.614Z,6.57
2023-04-22T02:04:57.916Z,5.90
2023-04-22T02:07:26.106Z,6.87
2023-04-22T02:09:54.214Z,5.77
2023-04-22T02:12:22.707Z,7.47
2023-04-22T02:14:51.080Z,7.33
2023-04-22T02:17:20.635Z,6.27
2023-04-22T02:19:48.886Z,7.00
2023-04-22T02:22:17.982Z,10.23
2023-04-22T02:24:46.469Z,13.27
2023-04-22T02:27:14.525Z,14.47
2023-04-22T02:29:43.227Z,21.70
2023-04-22T02:32:11.416Z,23.73
2023-04-22T02:34:40.883Z,22.37
2023-04-22T02:37:08.924Z,24.27
2023-04-22T02:39:37.311Z,30.00
2023-04-22T02:42:05.682Z,30.17
2023-04-22T02:44:33.757Z,28.00
2023-04-22T02:47:03.808Z,30.13
2023-04-22T02:57:59.670Z,35.57
2023-04-22T03:05:53.508Z,39.07
2023-04-22T03:08:24.155Z,44.00
2023-04-22T03:10:52.243Z,44.90
2023-04-22T03:13:20.326Z,40.17
2023-04-22T03:15:48.405Z,35.03
2023-04-22T03:18:16.442Z,41.50
2023-04-22T03:20:44.661Z,38.57
2023-04-22T03:23:12.721Z,40.87
2023-04-22T03:25:42.248Z,35.00
2023-04-22T03:28:10.904Z,33.90
2023-04-22T03:30:38.998Z,31.57
2023-04-22T03:36:57.711Z,29.37
2023-04-22T03:39:25.824Z,32.00
2023-04-22T03:41:55.546Z,30.53
2023-04-22T03:44:23.660Z,27.97
2023-04-22T03:46:51.750Z,30.67
2023-04-22T03:49:20.268Z,24.67
2023-04-22T03:51:48.314Z,26.30
2023-04-22T03:54:16.464Z,27.23
2023-04-22T03:56:44.584Z,25.80
2023-04-22T03:59:13.987Z,28.00
2023-04-22T04:01:42.062Z,24.43
2023-04-22T04:04:10.421Z,26.43
2023-04-22T04:06:38.809Z,28.07
2023-04-22T04:09:06.961Z,31.00
2023-04-22T04:11:35.026Z,26.23
2023-04-22T04:14:03.552Z,23.20
2023-04-22T04:16:33.186Z,28.53
2023-04-22T04:19:01.325Z,29.53
2023-04-22T04:21:29.408Z,26.33
2023-04-22T04:23:57.505Z,26.33
2023-04-22T04:26:27.543Z,28.57
2023-04-22T04:28:55.865Z,26.23
2023-04-22T04:31:24.967Z,24.70
2023-04-22T04:33:57.304Z,27.93
2023-04-22T04:40:24.591Z,27.17
2023-04-22T04:42:53.148Z,25.50
2023-04-22T04:45:21.217Z,27.17
2023-04-22T04:47:50.801Z,25.67
2023-04-22T04:50:21.094Z,24.17
2023-04-22T04:52:50.194Z,34.43
2023-04-22T04:55:18.833Z,33.87
2023-04-22T04:57:47.742Z,34.90
2023-04-22T05:00:16.533Z,44.03
2023-04-22T05:02:44.803Z,39.80
2023-04-22T05:05:12.920Z,41.20
2023-04-22T05:07:42.431Z,39.80
2023-04-22T05:10:11.724Z,37.60
2023-04-22T05:12:40.870Z,31.13
2023-04-22T05:15:09.641Z,32.03
2023-04-22T05:17:37.968Z,26.07
2023-04-22T05:20:06.807Z,27.20
2023-04-22T05:22:36.253Z,28.47
2023-04-22T05:25:06.384Z,24.43
2023-04-22T05:27:34.537Z,23.70
2023-04-22T05:30:02.601Z,24.40
2023-04-22T05:32:30.740Z,25.83
2023-04-22T05:34:58.780Z,20.23
2023-04-22T05:37:26.930Z,22.73
2023-04-22T05:39:55.054Z,24.27
2023-04-22T05:42:24.472Z,23.13
2023-04-22T05:44:52.556Z,21.47
2023-04-22T05:47:20.794Z,23.57
2023-04-22T05:49:48.903Z,23.63
2023-04-22T05:52:18.369Z,23.07
2023-04-22T05:54:46.486Z,22.63
2023-04-22T05:57:14.660Z,23.67
2023-04-22T05:59:44.139Z,21.73
2023-04-22T06:02:12.287Z,22.33
2023-04-22T06:04:40.854Z,23.67
2023-04-22T06:07:09.437Z,19.87
2023-04-22T06:09:37.559Z,20.53
2023-04-22T06:12:06.170Z,21.63
2023-04-22T06:14:34.305Z,17.93
2023-04-22T06:17:03.844Z,19.40
2023-04-22T06:19:31.966Z,21.47
2023-04-22T06:22:00.152Z,17.27
2023-04-22T06:24:28.263Z,19.50
2023-04-22T06:26:58.138Z,18.07
2023-04-22T06:29:26.331Z,18.37
2023-04-22T06:31:54.908Z,19.27
2023-04-22T06:34:24.680Z,18.27
2023-04-22T06:36:53.828Z,17.03
2023-04-22T06:39:21.961Z,19.03
2023-04-22T06:41:50.178Z,15.97
2023-04-22T06:44:18.292Z,13.05
2023-04-22T06:46:46.679Z,15.85
2023-04-22T06:49:14.851Z,14.90
2023-04-22T06:51:44.277Z,18.17
2023-04-22T06:54:12.357Z,12.20
2023-04-22T06:56:40.440Z,11.95
2023-04-22T06:59:09.144Z,11.77
2023-04-22T07:01:37.293Z,11.43
2023-04-22T07:04:05.606Z,10.75
2023-04-22T07:06:34.008Z,9.40
2023-04-22T07:09:03.538Z,9.52
2023-04-22T07:11:32.112Z,10.88
2023-04-22T07:14:00.212Z,9.93
2023-04-22T07:16:29.576Z,10.35
2023-04-22T07:18:59.203Z,8.65
2023-04-22T07:21:27.352Z,7.38
2023-04-22T07:23:55.627Z,8.75
2023-04-22T07:26:25.171Z,6.40
2023-04-22T07:28:53.254Z,7.80
2023-04-22T07:31:21.412Z,9.20
2023-04-22T07:33:49.552Z,8.35
2023-04-22T07:36:17.637Z,7.15
2023-04-22T07:38:45.704Z,6.60
2023-04-22T07:41:14.029Z,8.85
2023-04-22T07:43:43.485Z,6.50
2023-04-22T07:46:11.682Z,5.97
2023-04-22T07:48:39.764Z,6.68
2023-04-22T07:51:07.844Z,8.77
2023-04-22T07:53:36.016Z,6.55
2023-04-22T07:56:05.126Z,5.90
2023-04-22T07:58:33.248Z,6.75
2023-04-22T08:01:02.738Z,6.57
2023-04-22T08:03:31.200Z,8.18
2023-04-22T08:05:59.345Z,6.45
2023-04-22T08:21:03.473Z,6.18
2023-04-22T08:23:32.488Z,8.18
2023-04-22T08:26:00.764Z,7.43
2023-04-22T08:28:28.926Z,6.90
2023-04-22T08:30:57.147Z,8.63
2023-04-22T08:33:27.168Z,7.65
2023-04-22T08:35:55.579Z,7.30
2023-04-22T08:38:25.032Z,8.57
2023-04-22T08:40:57.072Z,6.63
2023-04-22T08:43:27.520Z,7.30
2023-04-22T08:45:55.655Z,6.57
2023-04-22T08:48:24.605Z,5.30
2023-04-22T08:50:53.202Z,6.20
2023-04-22T08:53:24.648Z,8.82
2023-04-22T08:55:57.541Z,6.82
2023-04-22T08:58:25.661Z,6.35
2023-04-22T09:00:54.209Z,7.03
2023-04-22T09:03:23.364Z,6.80
2023-04-22T09:05:53.126Z,5.78
2023-04-22T09:08:22.191Z,8.07
2023-04-22T09:10:50.392Z,6.53
2023-04-22T09:13:21.926Z,6.47
2023-04-22T09:15:50.087Z,7.47
2023-04-22T09:18:19.424Z,6.28
2023-04-22T09:20:49.180Z,7.47
2023-04-22T09:23:17.362Z,7.15
2023-04-22T09:25:47.196Z,5.95
2023-04-22T09:28:20.430Z,6.60
2023-04-22T09:30:48.904Z,6.88
2023-04-22T09:33:17.515Z,5.72
2023-04-22T09:35:45.894Z,6.03
2023-04-22T09:38:14.338Z,6.70
2023-04-22T09:40:44.368Z,6.50
2023-04-22T09:43:12.973Z,7.60
2023-04-22T09:45:44.191Z,6.32
2023-04-22T09:48:14.322Z,8.05
2023-04-22T09:50:45.683Z,6.70
2023-04-22T09:53:16.593Z,6.93
2023-04-22T09:55:46.825Z,6.70
2023-04-22T09:58:16.914Z,6.38
2023-04-22T10:00:48.872Z,8.98
2023-04-22T10:03:17.942Z,7.13
2023-04-22T10:05:46.415Z,6.65
2023-04-22T10:08:15.741Z,7.32
2023-04-22T10:10:44.783Z,6.32
2023-04-22T10:13:12.951Z,7.57
2023-04-22T10:15:43.422Z,7.20
2023-04-22T10:18:17.061Z,8.10
2023-04-22T10:20:47.003Z,7.00
2023-04-22T10:23:16.478Z,7.47
2023-04-22T10:25:47.928Z,6.75
2023-04-22T10:28:17.628Z,7.00
2023-04-22T10:30:45.976Z,8.57
2023-04-22T10:33:40.480Z,7.72
2023-04-22T10:36:17.218Z,7.07
2023-04-22T10:39:19.034Z,8.98
2023-04-22T10:41:53.707Z,7.22
2023-04-22T10:44:22.793Z,8.50
2023-04-22T10:47:03.386Z,7.93
2023-04-22T10:49:33.144Z,9.27
2023-04-22T10:52:04.061Z,8.30
2023-04-22T10:54:58.449Z,7.32
2023-04-22T10:57:37.480Z,7.88
2023-04-22T11:00:41.801Z,8.43
2023-04-22T11:03:19.213Z,6.90
2023-04-22T11:05:48.830Z,6.07
2023-04-22T11:08:24.309Z,6.32
2023-04-22T11:10:54.051Z,6.05
2023-04-22T11:13:23.110Z,6.65
2023-04-22T11:15:54.185Z,5.28
2023-04-22T11:18:23.668Z,11.00
2023-04-22T11:20:54.184Z,6.85
2023-04-22T11:23:25.406Z,5.95
2023-04-22T11:26:01.671Z,7.35
2023-04-22T11:28:30.141Z,6.55
2023-04-22T11:31:06.764Z,6.07
2023-04-22T11:33:35.561Z,7.60
2023-04-22T11:36:05.787Z,6.40
2023-04-22T11:38:34.024Z,5.68
2023-04-22T11:41:02.141Z,5.43
2023-04-22T11:43:31.005Z,7.28
2023-04-22T11:45:59.336Z,8.00
2023-04-22T11:56:18.689Z,6.30
2023-04-22T11:58:46.799Z,7.93
2023-04-22T12:01:15.210Z,7.72
2023-04-22T12:03:43.635Z,7.85
2023-04-22T12:06:11.938Z,7.65
2023-04-22T12:08:42.500Z,8.55
2023-04-22T12:11:12.356Z,9.00
2023-04-22T12:13:46.821Z,7.72
2023-04-22T12:16:16.753Z,6.78
2023-04-22T12:18:51.396Z,8.02
2023-04-22T12:25:11.061Z,8.05
2023-04-22T12:27:39.167Z,9.82
2023-04-22T12:30:10.267Z,7.50
2023-04-22T12:32:38.372Z,6.00
2023-04-22T12:35:08.547Z,7.75
2023-04-22T12:37:36.734Z,6.80
2023-04-22T12:40:06.777Z,8.85
2023-04-22T12:42:34.932Z,6.85
2023-04-22T12:45:03.401Z,8.63
2023-04-22T12:47:32.962Z,6.35
2023-04-22T12:50:06.259Z,8.18
2023-04-22T12:52:36.180Z,6.80
2023-04-22T12:55:05.000Z,5.32
2023-04-22T12:57:33.334Z,6.07
2023-04-22T13:00:01.407Z,7.30
2023-04-22T13:02:29.556Z,6.55
2023-04-22T13:04:59.076Z,6.60
2023-04-22T13:07:27.247Z,7.47
2023-04-22T13:09:55.689Z,5.72
2023-04-22T13:12:23.779Z,8.77
2023-04-22T13:14:51.953Z,8.40
2023-04-22T13:17:21.037Z,6.78
2023-04-22T13:19:50.837Z,7.32
2023-04-22T13:22:20.309Z,7.15
2023-04-22T13:24:48.457Z,8.90
2023-04-22T13:27:16.577Z,8.18
2023-04-22T13:29:44.864Z,7.78
2023-04-22T13:32:13.121Z,7.32
2023-04-22T13:34:41.212Z,9.07
2023-04-22T13:37:09.309Z,8.03
2023-04-22T13:39:39.066Z,12.00
2023-04-22T13:42:07.421Z,9.53
2023-04-22T13:44:35.460Z,10.70
2023-04-22T13:47:03.620Z,13.30
2023-04-22T13:49:31.740Z,10.27
2023-04-22T13:51:59.920Z,10.53
2023-04-22T13:54:28.636Z,12.10
2023-04-22T13:56:58.224Z,13.17
2023-04-22T13:59:26.308Z,12.20
2023-04-22T14:01:54.365Z,11.30
2023-04-22T14:04:22.568Z,11.30
2023-04-22T14:06:50.750Z,14.47
2023-04-22T14:09:18.987Z,11.00
2023-04-22T14:11:47.032Z,11.17
2023-04-22T14:14:16.539Z,11.90
2023-04-22T14:16:44.713Z,10.23
2023-04-22T14:19:14.237Z,11.47
2023-04-22T14:21:42.393Z,11.40
2023-04-22T14:24:10.488Z,9.43
2023-04-22T14:26:38.632Z,10.27
2023-04-22T14:29:06.814Z,9.33
2023-04-22T14:31:36.464Z,9.85
2023-04-22T14:34:04.535Z,10.30
2023-04-22T14:36:32.614Z,9.67
2023-04-22T14:39:00.687Z,9.57
2023-04-22T14:41:28.944Z,9.38
2023-04-22T14:43:57.072Z,11.13
2023-04-22T14:46:25.199Z,10.53
2023-04-22T14:48:54.662Z,12.30
2023-04-22T14:51:22.748Z,10.10
2023-04-22T15:05:14.825Z,9.13
2023-04-22T15:07:42.978Z,10.07
2023-04-22T15:10:11.471Z,10.37
2023-04-22T15:12:39.523Z,10.57
2023-04-22T15:15:08.742Z,11.05
2023-04-22T15:17:36.878Z,9.80
2023-04-22T15:20:07.228Z,9.88
2023-04-22T15:22:40.892Z,10.10
2023-04-22T15:25:10.107Z,9.82
2023-04-22T15:27:39.161Z,10.35
2023-04-22T15:30:08.681Z,9.90
2023-04-22T15:32:39.028Z,10.05
2023-04-22T15:35:08.697Z,8.75
2023-04-22T15:37:38.163Z,8.67
2023-04-22T15:40:07.844Z,10.20
2023-04-22T15:42:36.007Z,8.77
2023-04-22T15:45:04.459Z,11.47
2023-04-22T15:47:32.762Z,10.33
2023-04-22T15:50:06.458Z,9.80
2023-04-22T15:52:35.183Z,9.63
2023-04-22T15:55:04.767Z,10.50
2023-04-22T15:57:34.974Z,10.87
2023-04-22T16:00:12.005Z,9.43
2023-04-22T16:02:42.008Z,9.10
2023-04-22T16:05:11.580Z,8.10
2023-04-22T16:07:40.252Z,7.33
2023-04-22T16:10:11.328Z,9.73
2023-04-22T16:12:39.432Z,6.47
2023-04-22T16:15:09.132Z,7.37
2023-04-22T16:17:40.454Z,7.83
2023-04-22T16:20:10.488Z,5.63
2023-04-22T16:22:38.596Z,8.50
2023-04-22T16:25:07.970Z,5.67
2023-04-22T16:27:37.422Z,4.83
2023-04-22T16:30:06.534Z,5.03
2023-04-22T16:32:34.739Z,4.97
2023-04-22T16:35:02.800Z,6.47
2023-04-22T16:37:31.088Z,5.43
2023-04-22T16:39:59.288Z,6.00
2023-04-22T16:42:27.460Z,5.33
2023-04-22T16:44:56.998Z,6.73
2023-04-22T16:47:25.183Z,5.17
2023-04-22T16:49:53.384Z,6.40
2023-04-22T16:52:21.458Z,4.30
2023-04-22T16:54:51.551Z,4.00
2023-04-22T16:57:19.700Z,4.20
2023-04-22T16:59:47.813Z,6.43
2023-04-22T17:02:17.479Z,6.67
2023-04-22T17:04:45.698Z,8.30
2023-04-22T17:07:13.892Z,13.57
2023-04-22T17:09:42.380Z,14.37
2023-04-22T17:12:10.873Z,17.70
2023-04-22T17:14:39.135Z,17.27
2023-04-22T17:17:07.298Z,19.60
2023-04-22T17:19:37.122Z,17.70
2023-04-22T17:22:05.485Z,18.00
2023-04-22T17:24:33.622Z,18.77
2023-04-22T17:27:02.981Z,20.23
2023-04-22T17:29:31.119Z,21.47
2023-04-22T17:31:59.221Z,23.57
2023-04-22T17:34:28.218Z,25.80
2023-04-22T17:36:57.726Z,23.27
2023-04-22T17:39:25.868Z,28.00
2023-04-22T17:41:54.047Z,27.37
2023-04-22T17:44:22.128Z,25.57
2023-04-22T17:46:50.298Z,27.80
2023-04-22T17:49:18.367Z,29.30
2023-04-22T17:51:46.612Z,28.60
2023-04-22T17:54:16.223Z,25.13
2023-04-22T17:56:44.330Z,23.43
2023-04-22T17:59:12.432Z,24.03
2023-04-22T18:01:40.612Z,26.40
2023-04-22T18:04:08.881Z,23.77
2023-04-22T18:06:37.125Z,20.13
2023-04-22T18:18:03.965Z,22.67
2023-04-22T18:20:32.074Z,18.30
2023-04-22T18:23:00.228Z,20.57
2023-04-22T18:25:28.855Z,25.57
2023-04-22T18:27:56.930Z,21.70
2023-04-22T18:30:25.466Z,21.87
2023-04-22T18:32:53.998Z,20.10
2023-04-22T18:35:23.567Z,21.47
2023-04-22T18:37:51.700Z,18.80
2023-04-22T18:40:21.182Z,19.53
2023-04-22T18:42:49.296Z,23.50
2023-04-22T18:45:17.558Z,22.70
2023-04-22T18:47:47.113Z,23.00
2023-04-22T18:50:15.326Z,22.77
2023-04-22T18:52:44.862Z,23.10
2023-04-22T18:55:12.968Z,26.30
2023-04-22T18:57:41.548Z,24.90
2023-04-22T19:00:12.681Z,27.53
2023-04-22T19:02:42.409Z,28.83
2023-04-22T19:05:11.304Z,29.27
2023-04-22T19:07:41.522Z,28.83
2023-04-22T19:10:12.159Z,30.97
2023-04-22T19:12:40.318Z,27.30
2023-04-22T19:15:09.433Z,29.80
2023-04-22T19:17:38.125Z,27.90
2023-04-22T19:20:08.326Z,29.03
2023-04-22T19:22:36.800Z,33.00
2023-04-22T19:25:06.437Z,29.67
2023-04-22T19:27:36.026Z,29.73
2023-04-22T19:30:04.431Z,34.40
2023-04-22T19:32:32.752Z,33.80
2023-04-22T19:35:03.916Z,34.03
2023-04-22T19:37:32.383Z,31.73
2023-04-22T19:40:00.439Z,32.43
2023-04-22T19:42:29.173Z,36.67
2023-04-22T19:44:59.501Z,39.20
2023-04-22T19:47:28.042Z,41.70
2023-04-22T19:49:57.328Z,42.43
2023-04-22T19:52:26.390Z,44.53
2023-04-22T19:54:56.269Z,47.23
2023-04-22T19:57:24.854Z,46.27
2023-04-22T19:59:54.086Z,44.20
2023-04-22T20:02:24.383Z,55.67
2023-04-22T20:04:52.879Z,52.37
2023-04-22T20:07:21.626Z,50.10
2023-04-22T20:09:50.492Z,53.67
2023-04-22T20:12:19.080Z,58.77
2023-04-22T20:14:47.620Z,54.93
2023-04-22T20:17:16.051Z,53.20
2023-04-22T20:19:46.331Z,55.97
2023-04-22T20:22:17.938Z,56.73
2023-04-22T20:24:48.259Z,57.57
2023-04-22T20:27:17.186Z,53.10
2023-04-22T20:29:46.249Z,55.00
2023-04-22T20:32:14.653Z,55.70
2023-04-22T20:34:43.149Z,58.37
2023-04-22T20:37:14.086Z,56.83
2023-04-22T20:39:44.424Z,53.23
2023-04-22T20:42:13.067Z,51.10
2023-04-22T20:44:41.618Z,58.00
2023-04-22T20:47:10.308Z,59.30
2023-04-22T20:49:40.518Z,59.03
2023-04-22T20:56:21.450Z,57.40
2023-04-22T20:58:49.538Z,54.67
2023-04-22T21:01:19.526Z,57.87
2023-04-22T21:03:52.668Z,57.37
2023-04-22T21:06:22.060Z,55.63
2023-04-22T21:08:50.370Z,51.83
2023-04-22T21:11:20.697Z,54.97
2023-04-22T21:13:50.089Z,48.27
2023-04-22T21:16:20.429Z,45.70
2023-04-22T21:18:49.747Z,51.27
2023-04-22T21:21:19.137Z,45.73
2023-04-22T21:23:47.513Z,47.50
2023-04-22T21:26:18.082Z,48.00
2023-04-22T21:28:48.228Z,48.40
2023-04-22T21:31:16.864Z,45.90
2023-04-22T21:33:44.959Z,44.73
2023-04-22T21:36:13.057Z,48.07
2023-04-22T21:38:41.221Z,47.13
2023-04-22T21:41:09.725Z,44.97
2023-04-22T21:43:37.776Z,48.40
2023-04-22T21:46:07.660Z,45.97
2023-04-22T21:48:35.815Z,45.67
2023-04-22T21:51:04.091Z,52.00
2023-04-22T21:53:32.240Z,49.23
2023-04-22T21:56:00.400Z,50.87
2023-04-22T21:58:28.515Z,52.60
2023-04-22T22:00:56.990Z,51.23
2023-04-22T22:03:26.611Z,51.50
2023-04-22T22:05:54.827Z,59.10
2023-04-22T22:08:22.942Z,55.37
2023-04-22T22:10:51.346Z,52.83
2023-04-22T22:13:19.424Z,52.80
2023-04-22T22:15:47.883Z,57.03
2023-04-22T22:18:16.358Z,50.93
2023-04-22T22:20:45.849Z,53.47
2023-04-22T22:23:13.907Z,55.07
2023-04-22T22:25:41.996Z,53.30
2023-04-22T22:28:10.097Z,57.90
2023-04-22T22:30:38.151Z,56.63
2023-04-22T22:33:06.300Z,55.23
2023-04-22T22:35:34.561Z,61.03
2023-04-22T22:38:04.067Z,60.40
2023-04-22T22:40:32.231Z,60.97
2023-04-22T22:43:00.318Z,61.80
2023-04-22T22:45:28.504Z,61.83
2023-04-22T22:47:56.672Z,71.00
2023-04-22T22:50:25.170Z,67.10
2023-04-22T22:52:53.240Z,69.03
2023-04-22T22:55:22.685Z,72.50
2023-04-22T22:57:50.750Z,79.87
2023-04-22T23:00:19.039Z,73.17
2023-04-22T23:02:47.285Z,72.87
2023-04-22T23:05:15.715Z,67.67
2023-04-22T23:07:43.785Z,70.70
2023-04-22T23:10:12.146Z,73.77
2023-04-22T23:12:41.553Z,67.57
2023-04-22T23:15:10.268Z,73.87
2023-04-22T23:17:39.193Z,75.33
2023-04-22T23:20:09.927Z,79.83
2023-04-22T23:22:39.518Z,76.13
2023-04-22T23:25:09.153Z,77.60
2023-04-22T23:27:37.623Z,78.40
2023-04-22T23:30:08.912Z,76.03
2023-04-22T23:32:40.147Z,81.80
2023-04-22T23:35:09.629Z,75.77
2023-04-22T23:37:38.930Z,89.47
2023-04-22T23:40:08.490Z,80.20
2023-04-22T23:42:36.591Z,84.27
2023-04-22T23:45:06.660Z,86.73
2023-04-22T23:47:34.757Z,83.20
2023-04-22T23:50:03.218Z,84.40
2023-04-22T23:52:31.393Z,80.27
2023-04-22T23:55:00.016Z,89.17
2023-04-22T23:57:28.746Z,81.63
2023-04-22T23:59:57.489Z,82.80
